Time;durP1;ratioP1;P1;durP2;ratioP2;P2;SDS_P1;SDS_P2;PMS_P1;PMS_P2;Temp;Humidity;BMP_temperature;BMP_pressure;BME280_temperature;BME280_humidity;BME280_pressure;Samples;Min_cycle;Max_cycle;Signal;HPM_P1;HPM_P2
2024/03/12 00:03:18;;;;;;;3.25;2.30;;;;;;;;;;10130548;28;20145;-75
2024/03/12 00:08:11;;;;;;;5.22;3.67;;;;;;;;;;10134476;28;20567;-77
2024/03/12 00:13:07;;;;;;;5.13;3.25;;;;;;;;;;10129295;28;20091;-77
2024/03/12 00:18:04;;;;;;;5.13;3.75;;;;;;;;;;10134342;28;20057;-76
2024/03/12 00:23:01;;;;;;;4.72;2.60;;;;;;;;;;10134944;28;20064;-76
2024/03/12 00:27:58;;;;;;;5.72;3.17;;;;;;;;;;10135997;28;20094;-76
2024/03/12 00:32:54;;;;;;;3.60;2.97;;;;;;;;;;10131803;28;20523;-76
2024/03/12 00:37:48;;;;;;;3.28;2.53;;;;;;;;;;10131832;28;20514;-76
2024/03/12 00:42:44;;;;;;;2.42;2.20;;;;;;;;;;10133351;28;20584;-76
2024/03/12 00:47:40;;;;;;;4.03;2.88;;;;;;;;;;10132605;28;20056;-77
2024/03/12 00:52:36;;;;;;;2.40;1.90;;;;;;;;;;10133276;28;20136;-77
2024/03/12 00:57:30;;;;;;;7.78;2.30;;;;;;;;;;10130894;28;20033;-76
2024/03/12 01:02:25;;;;;;;1.92;1.70;;;;;;;;;;10129256;28;20586;-76
2024/03/12 01:07:19;;;;;;;4.40;2.00;;;;;;;;;;10134999;28;20048;-76
2024/03/12 01:12:13;;;;;;;2.72;1.95;;;;;;;;;;10130114;28;20048;-75
2024/03/12 01:17:07;;;;;;;3.22;1.77;;;;;;;;;;10132053;28;20508;-76
2024/03/12 01:22:04;;;;;;;1.80;1.70;;;;;;;;;;10130787;28;20425;-76
2024/03/12 01:26:58;;;;;;;2.72;1.80;;;;;;;;;;10130517;28;20048;-76
2024/03/12 01:31:52;;;;;;;2.10;1.95;;;;;;;;;;10131593;28;20113;-76
2024/03/12 01:36:47;;;;;;;2.22;1.80;;;;;;;;;;10130925;28;20073;-75
2024/03/12 01:41:41;;;;;;;1.77;1.67;;;;;;;;;;10130923;28;20044;-76
2024/03/12 01:46:36;;;;;;;3.50;2.83;;;;;;;;;;10132623;28;20080;-75
2024/03/12 01:51:31;;;;;;;2.20;1.70;;;;;;;;;;10114938;28;20098;-77
2024/03/12 01:56:26;;;;;;;2.28;1.95;;;;;;;;;;10128744;28;20094;-77
2024/03/12 02:01:20;;;;;;;2.28;1.67;;;;;;;;;;10127815;28;20094;-76
2024/03/12 02:06:14;;;;;;;1.70;1.60;;;;;;;;;;10131120;28;20063;-76
2024/03/12 02:11:08;;;;;;;2.67;1.90;;;;;;;;;;10125435;28;20066;-75
2024/03/12 02:16:03;;;;;;;6.15;2.00;;;;;;;;;;10126107;28;20098;-76
2024/03/12 02:20:58;;;;;;;1.67;1.35;;;;;;;;;;10130602;28;20063;-77
2024/03/12 02:25:52;;;;;;;2.15;1.95;;;;;;;;;;10086809;28;21704;-76
2024/03/12 02:30:46;;;;;;;3.40;1.65;;;;;;;;;;10091867;28;20056;-76
2024/03/12 02:35:40;;;;;;;4.38;2.00;;;;;;;;;;10092140;28;20049;-76
2024/03/12 02:40:33;;;;;;;2.30;1.88;;;;;;;;;;10089353;28;20060;-77
2024/03/12 02:45:27;;;;;;;4.20;1.92;;;;;;;;;;10088463;28;20439;-76
2024/03/12 02:50:23;;;;;;;1.73;1.48;;;;;;;;;;10090090;28;20041;-76
2024/03/12 02:55:19;;;;;;;1.60;1.50;;;;;;;;;;10087776;28;20100;-77
2024/03/12 03:00:14;;;;;;;2.03;1.83;;;;;;;;;;10092012;28;20133;-76
2024/03/12 03:05:09;;;;;;;3.70;1.85;;;;;;;;;;10090234;28;20045;-77
2024/03/12 03:10:06;;;;;;;2.00;1.90;;;;;;;;;;10081863;28;20096;-77
2024/03/12 03:15:00;;;;;;;1.75;1.60;;;;;;;;;;10082708;28;20583;-76
2024/03/12 03:19:54;;;;;;;3.05;1.60;;;;;;;;;;10087733;28;20488;-76
2024/03/12 03:24:49;;;;;;;3.70;1.83;;;;;;;;;;10093054;28;20051;-76
2024/03/12 03:29:42;;;;;;;2.55;1.63;;;;;;;;;;10094051;28;20041;-77
2024/03/12 03:34:37;;;;;;;3.63;2.08;;;;;;;;;;10094281;28;20057;-76
2024/03/12 03:39:34;;;;;;;3.03;2.05;;;;;;;;;;10093772;28;20443;-78
2024/03/12 03:44:29;;;;;;;2.03;1.80;;;;;;;;;;10096622;28;20049;-76
2024/03/12 03:49:23;;;;;;;3.63;1.83;;;;;;;;;;10094055;28;20497;-76
2024/03/12 03:54:18;;;;;;;2.40;1.80;;;;;;;;;;10097659;28;20064;-78
2024/03/12 03:59:15;;;;;;;6.05;3.60;;;;;;;;;;10090238;28;20041;-77
2024/03/12 04:04:12;;;;;;;7.78;1.75;;;;;;;;;;10098270;28;20135;-78
2024/03/12 04:09:08;;;;;;;2.45;2.10;;;;;;;;;;10093421;28;20452;-77
2024/03/12 04:14:02;;;;;;;1.90;1.70;;;;;;;;;;10093461;28;20057;-77
2024/03/12 04:18:59;;;;;;;1.77;1.50;;;;;;;;;;10097510;28;20045;-76
2024/03/12 04:23:53;;;;;;;2.55;1.73;;;;;;;;;;10119926;28;20496;-77
2024/03/12 04:28:48;;;;;;;1.77;1.67;;;;;;;;;;10142362;28;20419;-77
2024/03/12 04:33:42;;;;;;;1.90;1.70;;;;;;;;;;10138607;28;20148;-76
2024/03/12 04:38:40;;;;;;;2.13;1.83;;;;;;;;;;10141104;28;20409;-77
2024/03/12 04:43:34;;;;;;;3.90;1.60;;;;;;;;;;10142758;28;20135;-76
2024/03/12 04:48:28;;;;;;;1.65;1.55;;;;;;;;;;10142337;28;20096;-77
2024/03/12 04:53:22;;;;;;;3.75;1.70;;;;;;;;;;10139838;28;20143;-76
2024/03/12 04:58:17;;;;;;;5.97;2.22;;;;;;;;;;10142585;28;20117;-76
2024/03/12 05:03:11;;;;;;;5.82;1.67;;;;;;;;;;10138337;28;20516;-76
2024/03/12 05:08:07;;;;;;;2.58;1.40;;;;;;;;;;10138503;28;20056;-76
2024/03/12 05:13:02;;;;;;;1.83;1.60;;;;;;;;;;10138498;28;20066;-76
2024/03/12 05:17:56;;;;;;;1.67;1.42;;;;;;;;;;10136242;28;20121;-76
2024/03/12 05:22:50;;;;;;;3.08;2.13;;;;;;;;;;10140279;28;20048;-77
2024/03/12 05:27:44;;;;;;;1.95;1.70;;;;;;;;;;10139282;28;20422;-77
2024/03/12 05:32:43;;;;;;;1.55;1.45;;;;;;;;;;10137967;28;20048;-77
2024/03/12 05:38:01;;;;;;;;;;;;;;;;;;10135242;28;20052;-75
2024/03/12 05:48:09;;;;;;;2.50;1.38;;;;;;;;;;10140804;28;20139;-77
2024/03/12 05:53:04;;;;;;;4.85;2.58;;;;;;;;;;10138478;28;20086;-76
2024/03/12 05:57:58;;;;;;;2.58;1.70;;;;;;;;;;10138403;28;20052;-76
2024/03/12 06:02:53;;;;;;;3.72;1.67;;;;;;;;;;10137285;28;20473;-75
2024/03/12 06:07:48;;;;;;;2.22;1.50;;;;;;;;;;10132381;28;20040;-78
2024/03/12 06:12:41;;;;;;;3.55;1.77;;;;;;;;;;10135342;28;20471;-78
2024/03/12 06:17:36;;;;;;;2.05;1.80;;;;;;;;;;10134363;28;20052;-78
2024/03/12 06:22:30;;;;;;;6.20;3.30;;;;;;;;;;10127662;28;20403;-77
2024/03/12 06:27:24;;;;;;;5.63;2.47;;;;;;;;;;10130857;28;20449;-79
2024/03/12 06:32:19;;;;;;;2.58;2.33;;;;;;;;;;10126576;28;20430;-79
2024/03/12 06:37:13;;;;;;;6.53;4.78;;;;;;;;;;10124282;28;20051;-78
2024/03/12 06:42:07;;;;;;;9.95;5.85;;;;;;;;;;10122764;28;20079;-77
2024/03/12 06:47:05;;;;;;;7.13;6.25;;;;;;;;;;10127495;28;20136;-76
2024/03/12 06:52:00;;;;;;;8.45;4.82;;;;;;;;;;10125899;28;20063;-76
2024/03/12 06:56:55;;;;;;;9.05;5.22;;;;;;;;;;10132901;28;20461;-77
2024/03/12 07:01:53;;;;;;;10.23;4.75;;;;;;;;;;10135902;28;20439;-77
2024/03/12 07:06:47;;;;;;;8.35;5.82;;;;;;;;;;10136621;28;20048;-77
2024/03/12 07:11:40;;;;;;;5.28;4.78;;;;;;;;;;10131835;28;20136;-77
2024/03/12 07:16:34;;;;;;;8.32;4.97;;;;;;;;;;10132638;28;20057;-76
2024/03/12 07:21:27;;;;;;;5.32;4.78;;;;;;;;;;10129462;28;20122;-77
2024/03/12 07:26:22;;;;;;;7.05;4.93;;;;;;;;;;10132304;28;20488;-76
2024/03/12 07:31:15;;;;;;;11.57;5.82;;;;;;;;;;10128694;28;20155;-77
2024/03/12 07:36:10;;;;;;;7.55;5.25;;;;;;;;;;10128490;28;20057;-78
2024/03/12 07:41:08;;;;;;;5.25;4.25;;;;;;;;;;10128590;28;20103;-78
2024/03/12 07:46:03;;;;;;;7.18;5.22;;;;;;;;;;10127999;28;20126;-79
2024/03/12 07:50:58;;;;;;;5.03;4.43;;;;;;;;;;10129380;28;20049;-78
2024/03/12 07:56:00;;;;;;;6.97;4.60;;;;;;;;;;10126558;28;20048;-78
2024/03/12 08:00:55;;;;;;;8.23;4.47;;;;;;;;;;10128073;28;20132;-79
2024/03/12 08:05:49;;;;;;;7.28;4.15;;;;;;;;;;10128903;28;20136;-79
2024/03/12 08:10:43;;;;;;;2.50;2.30;;;;;;;;;;10129971;28;20059;-79
2024/03/12 08:15:37;;;;;;;4.28;2.40;;;;;;;;;;10125944;28;20419;-78
2024/03/12 08:20:31;;;;;;;6.10;2.45;;;;;;;;;;10127377;28;20048;-79
2024/03/12 08:25:25;;;;;;;3.05;1.80;;;;;;;;;;10124168;28;21203;-79
2024/03/12 08:30:21;;;;;;;3.05;1.77;;;;;;;;;;10125898;28;20114;-79
2024/03/12 08:35:14;;;;;;;3.13;1.70;;;;;;;;;;10127317;28;20060;-78
2024/03/12 08:40:14;;;;;;;1.85;1.30;;;;;;;;;;10139497;28;20063;-78
2024/03/12 08:45:12;;;;;;;2.88;1.42;;;;;;;;;;10126455;28;20054;-78
2024/03/12 08:50:07;;;;;;;1.63;1.40;;;;;;;;;;10128882;28;20502;-79
2024/03/12 08:55:01;;;;;;;2.35;1.10;;;;;;;;;;10123958;28;20065;-77
2024/03/12 09:00:01;;;;;;;1.30;0.95;;;;;;;;;;10122023;28;20118;-78
2024/03/12 09:04:54;;;;;;;1.75;1.20;;;;;;;;;;10126924;28;20075;-80
2024/03/12 09:09:48;;;;;;;2.72;1.40;;;;;;;;;;10124045;28;20072;-79
2024/03/12 09:14:45;;;;;;;3.00;1.60;;;;;;;;;;10127610;28;20523;-80
2024/03/12 09:19:39;;;;;;;3.95;1.40;;;;;;;;;;10125107;28;20055;-79
2024/03/12 09:24:34;;;;;;;1.08;0.90;;;;;;;;;;10126281;28;20051;-79
2024/03/12 09:29:28;;;;;;;1.38;1.00;;;;;;;;;;10124037;28;20049;-78
2024/03/12 09:34:21;;;;;;;4.10;1.40;;;;;;;;;;10128520;28;20477;-78
2024/03/12 09:39:17;;;;;;;2.55;1.00;;;;;;;;;;10124738;28;20052;-80
2024/03/12 09:44:11;;;;;;;0.80;0.77;;;;;;;;;;10120880;28;20064;-80
2024/03/12 09:49:05;;;;;;;3.55;0.88;;;;;;;;;;10122815;28;20049;-79
2024/03/12 09:53:59;;;;;;;2.35;0.90;;;;;;;;;;10126599;28;20052;-79
2024/03/12 09:58:53;;;;;;;1.60;0.80;;;;;;;;;;10121907;28;20052;-80
2024/03/12 10:03:48;;;;;;;5.80;0.80;;;;;;;;;;10126360;28;20050;-78
2024/03/12 10:08:46;;;;;;;2.42;0.57;;;;;;;;;;10122246;28;20094;-80
2024/03/12 10:13:40;;;;;;;0.43;0.40;;;;;;;;;;10132847;28;20574;-80
2024/03/12 10:18:37;;;;;;;0.50;0.50;;;;;;;;;;10139697;28;20119;-78
2024/03/12 10:23:41;;;;;;;0.57;0.50;;;;;;;;;;10138926;28;20083;-79
2024/03/12 10:28:35;;;;;;;2.75;0.60;;;;;;;;;;10143877;28;20049;-83
2024/03/12 10:33:31;;;;;;;0.82;0.50;;;;;;;;;;10133470;28;20044;-79
2024/03/12 10:38:26;;;;;;;0.30;0.30;;;;;;;;;;10122859;28;20570;-77
2024/03/12 10:43:25;;;;;;;3.58;0.70;;;;;;;;;;10125882;28;20041;-79
2024/03/12 10:48:20;;;;;;;1.30;0.60;;;;;;;;;;10124744;28;20075;-79
2024/03/12 10:53:14;;;;;;;1.30;0.50;;;;;;;;;;10119286;28;20398;-77
2024/03/12 10:58:09;;;;;;;1.08;0.50;;;;;;;;;;10125951;28;20048;-79
2024/03/12 11:03:04;;;;;;;0.75;0.57;;;;;;;;;;10108028;28;20056;-78
2024/03/12 11:07:59;;;;;;;1.77;0.60;;;;;;;;;;10122412;28;20106;-78
2024/03/12 11:13:00;;;;;;;2.58;0.60;;;;;;;;;;10121163;28;20489;-78
2024/03/12 11:17:55;;;;;;;0.60;0.50;;;;;;;;;;10122313;28;20049;-76
2024/03/12 11:22:57;;;;;;;0.57;0.57;;;;;;;;;;10120617;28;20102;-78
2024/03/12 11:28:20;;;;;;;4.03;0.90;;;;;;;;;;10123514;28;20044;-78
2024/03/12 11:33:38;;;;;;;1.23;0.50;;;;;;;;;;10121751;28;20052;-77
2024/03/12 11:38:33;;;;;;;3.85;0.50;;;;;;;;;;10121166;28;20059;-78
2024/03/12 11:43:42;;;;;;;0.85;0.60;;;;;;;;;;10125200;28;20045;-81
2024/03/12 11:48:38;;;;;;;1.60;0.60;;;;;;;;;;10130724;28;20049;-76
2024/03/12 11:53:35;;;;;;;0.98;0.70;;;;;;;;;;10127145;28;20095;-76
2024/03/12 11:58:31;;;;;;;0.50;0.40;;;;;;;;;;10128901;28;20132;-76
2024/03/12 12:03:25;;;;;;;1.15;0.50;;;;;;;;;;10125590;28;20049;-77
2024/03/12 12:08:19;;;;;;;2.55;0.50;;;;;;;;;;10127389;28;20079;-77
2024/03/12 12:13:16;;;;;;;4.07;1.77;;;;;;;;;;10133210;28;20393;-76
2024/03/12 12:18:10;;;;;;;4.25;0.95;;;;;;;;;;10119581;28;20060;-76
2024/03/12 12:23:06;;;;;;;1.73;1.00;;;;;;;;;;10126542;28;20060;-76
2024/03/12 12:28:02;;;;;;;2.15;1.30;;;;;;;;;;10127234;28;20121;-77
2024/03/12 12:32:56;;;;;;;2.47;1.27;;;;;;;;;;10135051;28;20448;-77
2024/03/12 12:37:50;;;;;;;0.90;0.90;;;;;;;;;;10127810;28;20062;-76
2024/03/12 12:42:46;;;;;;;2.45;0.95;;;;;;;;;;10127417;28;20052;-77
2024/03/12 12:47:40;;;;;;;1.10;0.90;;;;;;;;;;10126676;28;20059;-76
2024/03/12 12:52:35;;;;;;;1.75;1.10;;;;;;;;;;10122083;28;20580;-76
2024/03/12 12:57:34;;;;;;;1.17;1.05;;;;;;;;;;10127074;28;20056;-75
2024/03/12 13:02:30;;;;;;;5.55;1.70;;;;;;;;;;10126269;28;20056;-77
2024/03/12 13:07:28;;;;;;;2.53;1.10;;;;;;;;;;10126377;28;20420;-78
2024/03/12 13:12:22;;;;;;;5.03;1.33;;;;;;;;;;10125215;28;20052;-76
2024/03/12 13:17:15;;;;;;;1.30;1.20;;;;;;;;;;10126816;28;20056;-77
2024/03/12 13:22:09;;;;;;;1.30;1.20;;;;;;;;;;10124215;28;20056;-76
2024/03/12 13:27:13;;;;;;;1.27;1.10;;;;;;;;;;10123053;28;20067;-76
2024/03/12 13:32:07;;;;;;;0.98;0.95;;;;;;;;;;10123808;28;20507;-76
2024/03/12 13:37:01;;;;;;;2.17;1.10;;;;;;;;;;10124743;28;20056;-76
2024/03/12 13:41:55;;;;;;;3.15;1.27;;;;;;;;;;10120673;28;20049;-76
2024/03/12 13:46:49;;;;;;;1.25;1.15;;;;;;;;;;10125948;28;20052;-76
2024/03/12 13:51:45;;;;;;;3.55;1.58;;;;;;;;;;10120257;28;20049;-76
2024/03/12 13:56:39;;;;;;;2.17;1.75;;;;;;;;;;10125079;28;20076;-77
2024/03/12 14:01:33;;;;;;;1.50;1.40;;;;;;;;;;10121684;28;20125;-76
2024/03/12 14:06:28;;;;;;;2.05;1.40;;;;;;;;;;10110424;28;20072;-76
2024/03/12 14:11:24;;;;;;;1.75;1.27;;;;;;;;;;10121482;28;20094;-75
2024/03/12 14:16:20;;;;;;;4.50;1.45;;;;;;;;;;10120677;28;20057;-77
2024/03/12 14:21:16;;;;;;;4.53;1.45;;;;;;;;;;10121525;28;20437;-76
2024/03/12 14:26:10;;;;;;;1.60;1.30;;;;;;;;;;10126425;28;20135;-75
2024/03/12 14:31:03;;;;;;;1.85;1.75;;;;;;;;;;10124046;28;20047;-77
2024/03/12 14:35:58;;;;;;;2.85;1.67;;;;;;;;;;10126756;28;20098;-77
2024/03/12 14:40:52;;;;;;;1.73;1.45;;;;;;;;;;10121197;28;20060;-76
2024/03/12 14:45:47;;;;;;;1.40;1.30;;;;;;;;;;10120054;28;20052;-76
2024/03/12 14:50:42;;;;;;;1.80;1.48;;;;;;;;;;10120140;28;20053;-78
2024/03/12 14:55:39;;;;;;;3.95;1.52;;;;;;;;;;10122644;28;20098;-77
2024/03/12 15:00:33;;;;;;;1.77;1.67;;;;;;;;;;10123332;28;20049;-77
2024/03/12 15:05:27;;;;;;;4.90;1.30;;;;;;;;;;10120275;28;20044;-76
2024/03/12 15:10:22;;;;;;;1.50;1.40;;;;;;;;;;10120441;28;20574;-78
2024/03/12 15:15:15;;;;;;;1.40;1.30;;;;;;;;;;10125829;28;20140;-78
2024/03/12 15:20:18;;;;;;;1.63;1.30;;;;;;;;;;10131391;28;20057;-79
2024/03/12 15:25:12;;;;;;;3.33;1.30;;;;;;;;;;10149239;28;20061;-77
2024/03/12 15:30:07;;;;;;;1.75;1.40;;;;;;;;;;10148744;28;20053;-73
2024/03/12 15:35:03;;;;;;;3.30;1.42;;;;;;;;;;10156086;28;20056;-77
2024/03/12 15:39:59;;;;;;;1.70;1.30;;;;;;;;;;10146866;28;20048;-74
2024/03/12 15:44:54;;;;;;;1.55;1.20;;;;;;;;;;10128172;28;20072;-75
2024/03/12 15:49:54;;;;;;;1.48;0.90;;;;;;;;;;10131550;28;20048;-76
2024/03/12 15:54:49;;;;;;;1.58;1.17;;;;;;;;;;10132010;28;20048;-75
2024/03/12 15:59:47;;;;;;;2.60;1.00;;;;;;;;;;10129341;28;20061;-75
2024/03/12 16:04:41;;;;;;;1.30;1.20;;;;;;;;;;10129235;28;20055;-77
2024/03/12 16:09:36;;;;;;;1.33;1.13;;;;;;;;;;10127791;28;20048;-77
2024/03/12 16:14:30;;;;;;;1.20;1.08;;;;;;;;;;10125853;28;20052;-76
2024/03/12 16:19:29;;;;;;;1.42;0.90;;;;;;;;;;10131687;28;20127;-76
2024/03/12 16:24:26;;;;;;;1.48;0.88;;;;;;;;;;10112035;28;20053;-75
2024/03/12 16:29:28;;;;;;;2.33;0.70;;;;;;;;;;10130735;28;20397;-75
2024/03/12 16:34:25;;;;;;;1.10;1.00;;;;;;;;;;10137233;28;20053;-73
2024/03/12 16:39:20;;;;;;;5.33;3.63;;;;;;;;;;10131443;28;20048;-75
2024/03/12 16:44:15;;;;;;;5.68;4.55;;;;;;;;;;10136825;28;20131;-75
2024/03/12 16:49:09;;;;;;;4.88;4.38;;;;;;;;;;10129225;28;20231;-74
2024/03/12 16:54:06;;;;;;;7.70;6.05;;;;;;;;;;10133965;28;20856;-75
2024/03/12 16:59:02;;;;;;;10.70;6.78;;;;;;;;;;10129736;28;20118;-75
2024/03/12 17:03:57;;;;;;;1.40;1.27;;;;;;;;;;10129037;28;20135;-74
2024/03/12 17:08:53;;;;;;;3.90;1.67;;;;;;;;;;10128164;28;20056;-75
2024/03/12 17:13:49;;;;;;;5.45;2.30;;;;;;;;;;10129253;28;20052;-74
2024/03/12 17:18:44;;;;;;;1.55;1.33;;;;;;;;;;10131186;28;21292;-74
2024/03/12 17:23:38;;;;;;;4.50;3.15;;;;;;;;;;10130286;28;20505;-72
2024/03/12 17:28:33;;;;;;;2.97;2.50;;;;;;;;;;10131128;28;20044;-75
2024/03/12 17:33:29;;;;;;;3.28;2.20;;;;;;;;;;10132277;28;20055;-76
2024/03/12 17:38:25;;;;;;;2.28;2.08;;;;;;;;;;10125363;28;21455;-74
2024/03/12 17:43:29;;;;;;;1.92;1.70;;;;;;;;;;10128424;28;20106;-75
2024/03/12 17:48:23;;;;;;;3.45;2.75;;;;;;;;;;10126418;28;20056;-76
2024/03/12 17:53:20;;;;;;;10.23;6.25;;;;;;;;;;10113661;28;20076;-75
2024/03/12 17:58:16;;;;;;;7.40;5.13;;;;;;;;;;10122866;28;20056;-75
2024/03/12 18:03:13;;;;;;;2.88;2.58;;;;;;;;;;10124562;28;20044;-76
2024/03/12 18:08:07;;;;;;;1.88;1.77;;;;;;;;;;10124757;28;20406;-76
2024/03/12 18:13:03;;;;;;;3.20;2.28;;;;;;;;;;10096961;28;20048;-75
2024/03/12 18:17:57;;;;;;;2.85;2.30;;;;;;;;;;10124026;28;20052;-75
2024/03/12 18:22:50;;;;;;;4.60;3.13;;;;;;;;;;10125023;28;20057;-77
2024/03/12 18:27:45;;;;;;;5.57;4.43;;;;;;;;;;10125973;28;20500;-75
2024/03/12 18:32:38;;;;;;;6.40;4.70;;;;;;;;;;10127707;28;20424;-76
2024/03/12 18:37:32;;;;;;;8.00;5.05;;;;;;;;;;10128764;28;20396;-76
2024/03/12 18:42:26;;;;;;;6.45;4.75;;;;;;;;;;10128633;28;20055;-76
2024/03/12 18:47:21;;;;;;;8.38;4.88;;;;;;;;;;10130729;28;20389;-76
2024/03/12 18:52:16;;;;;;;4.28;2.92;;;;;;;;;;10134011;28;20080;-76
2024/03/12 18:57:12;;;;;;;3.20;2.50;;;;;;;;;;10131831;28;20041;-77
2024/03/12 19:02:46;;;;;;;7.72;3.40;;;;;;;;;;10133784;28;20055;-76
2024/03/12 19:07:41;;;;;;;5.28;2.97;;;;;;;;;;10135982;28;20101;-76
2024/03/12 19:12:39;;;;;;;3.35;2.10;;;;;;;;;;10137179;28;20076;-77
2024/03/12 19:17:41;;;;;;;1.98;1.75;;;;;;;;;;10134680;28;20081;-77
2024/03/12 19:22:38;;;;;;;4.07;2.22;;;;;;;;;;10129798;28;20056;-76
2024/03/12 19:27:32;;;;;;;2.35;1.67;;;;;;;;;;10129435;28;20053;-77
2024/03/12 19:32:28;;;;;;;2.38;1.50;;;;;;;;;;10131411;28;20045;-75
2024/03/12 19:37:24;;;;;;;3.08;1.77;;;;;;;;;;10126663;28;20139;-76
2024/03/12 19:42:20;;;;;;;1.30;1.20;;;;;;;;;;10131477;28;20052;-76
2024/03/12 19:47:15;;;;;;;3.40;2.92;;;;;;;;;;10123502;28;20173;-76
2024/03/12 19:52:13;;;;;;;1.10;1.00;;;;;;;;;;10122200;28;20064;-76
2024/03/12 19:57:08;;;;;;;1.35;1.25;;;;;;;;;;10126724;28;20049;-75
2024/03/12 20:02:04;;;;;;;1.48;1.27;;;;;;;;;;10127658;28;20049;-77
2024/03/12 20:06:59;;;;;;;2.05;1.27;;;;;;;;;;10132907;28;20065;-75
2024/03/12 20:12:24;;;;;;;1.48;1.15;;;;;;;;;;10133922;28;20056;-77
2024/03/12 20:17:20;;;;;;;4.63;1.17;;;;;;;;;;10129620;28;20059;-76
2024/03/12 20:22:15;;;;;;;2.67;2.08;;;;;;;;;;10131019;28;20110;-76
2024/03/12 20:27:09;;;;;;;3.42;1.65;;;;;;;;;;10131637;28;20044;-78
2024/03/12 20:32:07;;;;;;;3.83;1.33;;;;;;;;;;10130934;28;20052;-75
2024/03/12 20:37:03;;;;;;;1.85;1.58;;;;;;;;;;10111542;28;20061;-76
2024/03/12 20:41:57;;;;;;;2.03;1.63;;;;;;;;;;10129906;28;20049;-76
2024/03/12 20:46:50;;;;;;;1.70;1.25;;;;;;;;;;10120569;28;20051;-78
2024/03/12 20:51:45;;;;;;;1.90;1.48;;;;;;;;;;10136635;28;20497;-77
2024/03/12 20:56:40;;;;;;;1.95;1.40;;;;;;;;;;10135923;28;20710;-77
2024/03/12 21:01:34;;;;;;;4.88;1.92;;;;;;;;;;10126965;28;20677;-77
2024/03/12 21:06:28;;;;;;;3.15;2.22;;;;;;;;;;10144617;28;20087;-76
2024/03/12 21:11:22;;;;;;;5.60;2.63;;;;;;;;;;10140960;28;20037;-75
2024/03/12 21:16:16;;;;;;;2.72;2.40;;;;;;;;;;10134473;28;20080;-76
2024/03/12 21:21:15;;;;;;;2.25;2.05;;;;;;;;;;10143294;28;20067;-76
2024/03/12 21:26:09;;;;;;;3.45;2.92;;;;;;;;;;10143707;28;20098;-77
2024/03/12 21:31:04;;;;;;;1.50;1.40;;;;;;;;;;10147664;28;20060;-75
2024/03/12 21:35:59;;;;;;;2.35;1.80;;;;;;;;;;10135060;28;20052;-78
2024/03/12 21:40:52;;;;;;;2.38;1.60;;;;;;;;;;10119848;28;20055;-76
2024/03/12 21:45:47;;;;;;;2.17;1.45;;;;;;;;;;10137506;28;20052;-76
2024/03/12 21:50:42;;;;;;;1.63;1.50;;;;;;;;;;10134258;28;20110;-75
2024/03/12 21:55:38;;;;;;;1.67;1.58;;;;;;;;;;10134517;28;20486;-76
2024/03/12 22:00:33;;;;;;;3.90;1.50;;;;;;;;;;10143651;28;20056;-77
2024/03/12 22:05:29;;;;;;;3.47;3.28;;;;;;;;;;10143723;28;20044;-77
2024/03/12 22:10:22;;;;;;;1.90;1.48;;;;;;;;;;10143940;28;20056;-77
2024/03/12 22:15:16;;;;;;;4.90;1.42;;;;;;;;;;10144284;28;20068;-77
2024/03/12 22:20:17;;;;;;;1.38;1.20;;;;;;;;;;10132683;28;20063;-78
2024/03/12 22:25:14;;;;;;;2.72;1.75;;;;;;;;;;10143224;28;20064;-77
2024/03/12 22:30:11;;;;;;;1.60;1.50;;;;;;;;;;10143706;28;20163;-77
2024/03/12 22:35:06;;;;;;;1.60;1.50;;;;;;;;;;10144272;28;20048;-78
2024/03/12 22:40:02;;;;;;;2.78;1.30;;;;;;;;;;10132146;28;20045;-77
2024/03/12 22:44:58;;;;;;;2.10;1.20;;;;;;;;;;10143522;28;20500;-78
2024/03/12 22:49:54;;;;;;;4.78;1.70;;;;;;;;;;10143373;28;20139;-77
2024/03/12 22:54:49;;;;;;;2.72;1.38;;;;;;;;;;10142824;28;20056;-77
2024/03/12 22:59:47;;;;;;;1.45;1.30;;;;;;;;;;10142614;28;20115;-79
2024/03/12 23:04:43;;;;;;;1.40;1.30;;;;;;;;;;10143050;28;20136;-78
2024/03/12 23:09:38;;;;;;;1.58;1.30;;;;;;;;;;10141638;28;20049;-78
2024/03/12 23:14:34;;;;;;;1.30;1.00;;;;;;;;;;10142721;28;20420;-81
2024/03/12 23:19:28;;;;;;;1.02;0.93;;;;;;;;;;10143106;28;20082;-81
2024/03/12 23:24:22;;;;;;;1.00;1.00;;;;;;;;;;10143898;28;20110;-84
2024/03/12 23:29:17;;;;;;;2.00;1.42;;;;;;;;;;10119264;28;20055;-76
2024/03/12 23:34:10;;;;;;;1.55;1.45;;;;;;;;;;10141518;28;20052;-76
2024/03/12 23:39:06;;;;;;;1.00;1.00;;;;;;;;;;10150463;28;20102;-76
2024/03/12 23:44:00;;;;;;;1.20;1.10;;;;;;;;;;10150211;28;20052;-76
2024/03/12 23:48:55;;;;;;;0.90;0.82;;;;;;;;;;10150134;28;20497;-76
2024/03/12 23:53:50;;;;;;;1.50;1.05;;;;;;;;;;10149875;28;20098;-75
2024/03/12 23:58:44;;;;;;;1.52;1.30;;;;;;;;;;10133905;28;20091;-77
